sensor_id;sensor_type;location;lat;lon;timestamp;P1;durP1;ratioP1;P2;durP2;ratioP2
67930;SDS011;54726;52.000;5.954;2022-09-09T00:00:41;4.18;;;2.00;;
67930;SDS011;54726;52.000;5.954;2022-09-09T00:01:49;4.55;;;2.00;;
67930;SDS011;54726;52.000;5.954;2022-09-09T00:02:55;6.32;;;2.13;;
67930;SDS011;54726;52.000;5.954;2022-09-09T00:04:03;4.93;;;1.85;;
67930;SDS011;54726;52.000;5.954;2022-09-09T00:05:12;2.58;;;1.58;;
67930;SDS011;54726;52.000;5.954;2022-09-09T00:06:21;6.75;;;2.00;;
67930;SDS011;54726;52.000;5.954;2022-09-09T00:07:25;3.10;;;1.85;;
67930;SDS011;54726;52.000;5.954;2022-09-09T00:08:37;3.67;;;1.60;;
67930;SDS011;54726;52.000;5.954;2022-09-09T00:09:48;4.00;;;1.73;;
67930;SDS011;54726;52.000;5.954;2022-09-09T00:10:57;5.20;;;1.55;;
67930;SDS011;54726;52.000;5.954;2022-09-09T00:12:02;3.70;;;1.70;;
67930;SDS011;54726;52.000;5.954;2022-09-09T00:13:13;4.80;;;2.25;;
67930;SDS011;54726;52.000;5.954;2022-09-09T00:14:20;3.80;;;2.13;;
67930;SDS011;54726;52.000;5.954;2022-09-09T00:15:26;3.90;;;1.98;;
67930;SDS011;54726;52.000;5.954;2022-09-09T00:16:33;5.28;;;2.38;;
67930;SDS011;54726;52.000;5.954;2022-09-09T00:17:38;8.93;;;2.33;;
67930;SDS011;54726;52.000;5.954;2022-09-09T00:18:50;3.88;;;2.63;;
67930;SDS011;54726;52.000;5.954;2022-09-09T00:19:59;3.35;;;2.25;;
67930;SDS011;54726;52.000;5.954;2022-09-09T00:21:05;3.33;;;2.20;;
67930;SDS011;54726;52.000;5.954;2022-09-09T00:22:16;3.85;;;2.08;;
67930;SDS011;54726;52.000;5.954;2022-09-09T00:23:19;3.72;;;2.25;;
67930;SDS011;54726;52.000;5.954;2022-09-09T00:24:25;9.10;;;2.55;;
67930;SDS011;54726;52.000;5.954;2022-09-09T00:25:31;5.75;;;2.60;;
67930;SDS011;54726;52.000;5.954;2022-09-09T00:26:38;3.63;;;2.70;;
67930;SDS011;54726;52.000;5.954;2022-09-09T00:27:45;3.38;;;2.45;;
67930;SDS011;54726;52.000;5.954;2022-09-09T00:28:48;6.55;;;2.72;;
67930;SDS011;54726;52.000;5.954;2022-09-09T00:29:53;7.15;;;2.42;;
67930;SDS011;54726;52.000;5.954;2022-09-09T00:30:59;4.85;;;2.60;;
67930;SDS011;54726;52.000;5.954;2022-09-09T00:32:08;3.50;;;2.47;;
67930;SDS011;54726;52.000;5.954;2022-09-09T00:33:12;4.32;;;2.80;;
67930;SDS011;54726;52.000;5.954;2022-09-09T00:34:16;6.13;;;3.00;;
67930;SDS011;54726;52.000;5.954;2022-09-09T00:35:21;3.95;;;2.70;;
67930;SDS011;54726;52.000;5.954;2022-09-09T00:36:24;6.80;;;3.05;;
67930;SDS011;54726;52.000;5.954;2022-09-09T00:37:27;5.00;;;2.97;;
67930;SDS011;54726;52.000;5.954;2022-09-09T00:38:32;8.07;;;3.05;;
67930;SDS011;54726;52.000;5.954;2022-09-09T00:39:36;4.13;;;2.78;;
67930;SDS011;54726;52.000;5.954;2022-09-09T00:40:41;3.10;;;2.42;;
67930;SDS011;54726;52.000;5.954;2022-09-09T00:41:54;4.68;;;2.80;;
67930;SDS011;54726;52.000;5.954;2022-09-09T00:43:10;4.43;;;2.90;;
67930;SDS011;54726;52.000;5.954;2022-09-09T00:44:25;6.50;;;3.40;;
67930;SDS011;54726;52.000;5.954;2022-09-09T00:45:37;5.50;;;2.85;;
67930;SDS011;54726;52.000;5.954;2022-09-09T00:46:56;3.97;;;2.95;;
67930;SDS011;54726;52.000;5.954;2022-09-09T00:48:09;5.13;;;2.97;;
67930;SDS011;54726;52.000;5.954;2022-09-09T00:49:14;5.38;;;3.22;;
67930;SDS011;54726;52.000;5.954;2022-09-09T00:50:27;9.02;;;3.55;;
67930;SDS011;54726;52.000;5.954;2022-09-09T00:51:38;8.05;;;3.05;;
67930;SDS011;54726;52.000;5.954;2022-09-09T00:52:50;5.63;;;3.17;;
67930;SDS011;54726;52.000;5.954;2022-09-09T00:54:05;6.50;;;3.38;;
67930;SDS011;54726;52.000;5.954;2022-09-09T00:56:23;6.65;;;3.00;;
67930;SDS011;54726;52.000;5.954;2022-09-09T00:57:30;8.27;;;3.40;;
67930;SDS011;54726;52.000;5.954;2022-09-09T00:58:31;9.45;;;3.70;;
67930;SDS011;54726;52.000;5.954;2022-09-09T00:59:32;4.57;;;3.35;;
67930;SDS011;54726;52.000;5.954;2022-09-09T01:01:44;5.75;;;3.22;;
67930;SDS011;54726;52.000;5.954;2022-09-09T01:02:47;4.95;;;3.00;;
67930;SDS011;54726;52.000;5.954;2022-09-09T01:03:54;5.68;;;3.38;;
67930;SDS011;54726;52.000;5.954;2022-09-09T01:04:57;5.43;;;3.50;;
67930;SDS011;54726;52.000;5.954;2022-09-09T01:06:11;6.68;;;3.65;;
67930;SDS011;54726;52.000;5.954;2022-09-09T01:07:15;6.50;;;3.58;;
67930;SDS011;54726;52.000;5.954;2022-09-09T01:08:21;8.65;;;3.00;;
67930;SDS011;54726;52.000;5.954;2022-09-09T01:09:38;7.85;;;3.47;;
67930;SDS011;54726;52.000;5.954;2022-09-09T01:10:48;5.97;;;3.25;;
67930;SDS011;54726;52.000;5.954;2022-09-09T01:11:55;4.93;;;3.33;;
67930;SDS011;54726;52.000;5.954;2022-09-09T01:13:04;5.15;;;3.50;;
67930;SDS011;54726;52.000;5.954;2022-09-09T01:14:14;8.77;;;2.92;;
67930;SDS011;54726;52.000;5.954;2022-09-09T01:15:24;5.50;;;3.42;;
67930;SDS011;54726;52.000;5.954;2022-09-09T01:16:28;5.57;;;3.00;;
67930;SDS011;54726;52.000;5.954;2022-09-09T01:17:30;8.23;;;3.35;;
67930;SDS011;54726;52.000;5.954;2022-09-09T01:18:35;4.13;;;2.90;;
67930;SDS011;54726;52.000;5.954;2022-09-09T01:19:40;6.80;;;3.13;;
67930;SDS011;54726;52.000;5.954;2022-09-09T01:20:55;7.43;;;3.10;;
67930;SDS011;54726;52.000;5.954;2022-09-09T01:22:03;7.40;;;3.10;;
67930;SDS011;54726;52.000;5.954;2022-09-09T01:23:18;5.50;;;3.17;;
67930;SDS011;54726;52.000;5.954;2022-09-09T01:24:35;4.80;;;3.40;;
67930;SDS011;54726;52.000;5.954;2022-09-09T01:26:03;4.35;;;2.70;;
67930;SDS011;54726;52.000;5.954;2022-09-09T01:27:18;8.75;;;2.80;;
67930;SDS011;54726;52.000;5.954;2022-09-09T01:28:22;5.05;;;2.88;;
67930;SDS011;54726;52.000;5.954;2022-09-09T01:29:26;4.20;;;2.75;;
67930;SDS011;54726;52.000;5.954;2022-09-09T01:30:27;6.28;;;2.90;;
67930;SDS011;54726;52.000;5.954;2022-09-09T01:31:28;5.35;;;2.75;;
67930;SDS011;54726;52.000;5.954;2022-09-09T01:32:37;5.75;;;2.85;;
67930;SDS011;54726;52.000;5.954;2022-09-09T01:33:40;5.18;;;2.78;;
67930;SDS011;54726;52.000;5.954;2022-09-09T01:34:41;5.47;;;2.67;;
67930;SDS011;54726;52.000;5.954;2022-09-09T01:35:43;6.30;;;3.00;;
67930;SDS011;54726;52.000;5.954;2022-09-09T01:36:49;5.22;;;2.65;;
67930;SDS011;54726;52.000;5.954;2022-09-09T01:37:55;6.13;;;2.60;;
67930;SDS011;54726;52.000;5.954;2022-09-09T01:38:56;4.88;;;2.90;;
67930;SDS011;54726;52.000;5.954;2022-09-09T01:39:57;5.10;;;2.65;;
67930;SDS011;54726;52.000;5.954;2022-09-09T01:40:58;3.97;;;2.42;;
67930;SDS011;54726;52.000;5.954;2022-09-09T01:41:59;5.82;;;2.70;;
67930;SDS011;54726;52.000;5.954;2022-09-09T01:43:00;7.22;;;2.38;;
67930;SDS011;54726;52.000;5.954;2022-09-09T01:44:00;4.43;;;2.38;;
67930;SDS011;54726;52.000;5.954;2022-09-09T01:45:02;3.88;;;2.28;;
67930;SDS011;54726;52.000;5.954;2022-09-09T01:46:04;5.20;;;2.53;;
67930;SDS011;54726;52.000;5.954;2022-09-09T01:47:04;5.85;;;2.38;;
67930;SDS011;54726;52.000;5.954;2022-09-09T01:48:05;4.30;;;2.28;;
67930;SDS011;54726;52.000;5.954;2022-09-09T01:49:06;6.53;;;2.38;;
67930;SDS011;54726;52.000;5.954;2022-09-09T01:50:09;5.93;;;2.60;;
67930;SDS011;54726;52.000;5.954;2022-09-09T01:51:10;4.28;;;2.20;;
67930;SDS011;54726;52.000;5.954;2022-09-09T01:52:10;3.17;;;2.10;;
67930;SDS011;54726;52.000;5.954;2022-09-09T01:53:11;8.00;;;2.38;;
67930;SDS011;54726;52.000;5.954;2022-09-09T01:54:13;5.38;;;2.20;;
67930;SDS011;54726;52.000;5.954;2022-09-09T01:55:14;4.60;;;2.38;;
67930;SDS011;54726;52.000;5.954;2022-09-09T01:56:20;3.83;;;2.22;;
67930;SDS011;54726;52.000;5.954;2022-09-09T01:57:27;4.63;;;2.47;;
67930;SDS011;54726;52.000;5.954;2022-09-09T01:58:34;4.45;;;2.30;;
67930;SDS011;54726;52.000;5.954;2022-09-09T01:59:46;13.95;;;2.30;;
67930;SDS011;54726;52.000;5.954;2022-09-09T02:00:54;3.53;;;2.20;;
67930;SDS011;54726;52.000;5.954;2022-09-09T02:02:06;4.07;;;2.40;;
67930;SDS011;54726;52.000;5.954;2022-09-09T02:03:12;3.55;;;2.03;;
67930;SDS011;54726;52.000;5.954;2022-09-09T02:04:24;3.75;;;2.10;;
67930;SDS011;54726;52.000;5.954;2022-09-09T02:05:36;5.03;;;2.40;;
67930;SDS011;54726;52.000;5.954;2022-09-09T02:06:39;4.18;;;2.08;;
67930;SDS011;54726;52.000;5.954;2022-09-09T02:07:41;3.63;;;1.85;;
67930;SDS011;54726;52.000;5.954;2022-09-09T02:08:43;5.45;;;2.35;;
67930;SDS011;54726;52.000;5.954;2022-09-09T02:09:47;8.00;;;2.25;;
67930;SDS011;54726;52.000;5.954;2022-09-09T02:10:54;3.13;;;2.00;;
67930;SDS011;54726;52.000;5.954;2022-09-09T02:12:02;3.63;;;2.20;;
67930;SDS011;54726;52.000;5.954;2022-09-09T02:13:09;5.68;;;2.33;;
67930;SDS011;54726;52.000;5.954;2022-09-09T02:14:15;4.55;;;2.50;;
67930;SDS011;54726;52.000;5.954;2022-09-09T02:15:22;5.53;;;2.15;;
67930;SDS011;54726;52.000;5.954;2022-09-09T02:16:32;3.97;;;2.40;;
67930;SDS011;54726;52.000;5.954;2022-09-09T02:17:38;4.93;;;2.40;;
67930;SDS011;54726;52.000;5.954;2022-09-09T02:18:42;3.70;;;2.05;;
67930;SDS011;54726;52.000;5.954;2022-09-09T02:19:52;3.67;;;2.22;;
67930;SDS011;54726;52.000;5.954;2022-09-09T02:20:56;7.35;;;1.80;;
67930;SDS011;54726;52.000;5.954;2022-09-09T02:21:59;3.95;;;2.33;;
67930;SDS011;54726;52.000;5.954;2022-09-09T02:23:01;6.07;;;2.45;;
67930;SDS011;54726;52.000;5.954;2022-09-09T02:24:02;6.05;;;2.50;;
67930;SDS011;54726;52.000;5.954;2022-09-09T02:25:05;4.55;;;2.45;;
67930;SDS011;54726;52.000;5.954;2022-09-09T02:26:08;11.15;;;2.63;;
67930;SDS011;54726;52.000;5.954;2022-09-09T02:27:12;3.75;;;2.28;;
67930;SDS011;54726;52.000;5.954;2022-09-09T02:28:14;4.45;;;2.40;;
67930;SDS011;54726;52.000;5.954;2022-09-09T02:29:18;3.28;;;2.25;;
67930;SDS011;54726;52.000;5.954;2022-09-09T02:30:21;7.65;;;2.53;;
67930;SDS011;54726;52.000;5.954;2022-09-09T02:31:22;3.83;;;2.47;;
67930;SDS011;54726;52.000;5.954;2022-09-09T02:32:25;6.18;;;2.30;;
67930;SDS011;54726;52.000;5.954;2022-09-09T02:33:30;5.25;;;2.10;;
67930;SDS011;54726;52.000;5.954;2022-09-09T02:34:36;5.78;;;2.50;;
67930;SDS011;54726;52.000;5.954;2022-09-09T02:35:42;6.25;;;2.50;;
67930;SDS011;54726;52.000;5.954;2022-09-09T02:36:44;4.00;;;2.30;;
67930;SDS011;54726;52.000;5.954;2022-09-09T02:37:46;9.38;;;2.38;;
67930;SDS011;54726;52.000;5.954;2022-09-09T02:38:47;5.78;;;3.10;;
67930;SDS011;54726;52.000;5.954;2022-09-09T02:39:47;3.85;;;2.47;;
67930;SDS011;54726;52.000;5.954;2022-09-09T02:40:49;4.45;;;2.50;;
67930;SDS011;54726;52.000;5.954;2022-09-09T02:41:50;3.15;;;2.30;;
67930;SDS011;54726;52.000;5.954;2022-09-09T02:42:51;5.60;;;2.90;;
67930;SDS011;54726;52.000;5.954;2022-09-09T02:43:54;3.17;;;2.13;;
67930;SDS011;54726;52.000;5.954;2022-09-09T02:44:55;5.78;;;2.50;;
67930;SDS011;54726;52.000;5.954;2022-09-09T02:45:57;7.43;;;2.72;;
67930;SDS011;54726;52.000;5.954;2022-09-09T02:47:07;4.88;;;2.40;;
67930;SDS011;54726;52.000;5.954;2022-09-09T02:48:17;3.53;;;2.67;;
67930;SDS011;54726;52.000;5.954;2022-09-09T02:49:25;5.85;;;2.67;;
67930;SDS011;54726;52.000;5.954;2022-09-09T02:50:32;6.22;;;2.85;;
67930;SDS011;54726;52.000;5.954;2022-09-09T02:51:35;4.63;;;2.90;;
67930;SDS011;54726;52.000;5.954;2022-09-09T02:52:47;4.30;;;2.53;;
67930;SDS011;54726;52.000;5.954;2022-09-09T02:54:01;8.40;;;2.58;;
67930;SDS011;54726;52.000;5.954;2022-09-09T02:55:11;5.50;;;2.35;;
67930;SDS011;54726;52.000;5.954;2022-09-09T02:56:18;4.85;;;2.40;;
67930;SDS011;54726;52.000;5.954;2022-09-09T02:57:23;3.53;;;2.58;;
67930;SDS011;54726;52.000;5.954;2022-09-09T02:58:29;6.65;;;2.67;;
67930;SDS011;54726;52.000;5.954;2022-09-09T02:59:30;6.03;;;2.85;;
67930;SDS011;54726;52.000;5.954;2022-09-09T03:00:31;4.20;;;2.85;;
67930;SDS011;54726;52.000;5.954;2022-09-09T03:01:31;4.32;;;2.47;;
67930;SDS011;54726;52.000;5.954;2022-09-09T03:02:32;3.90;;;2.78;;
67930;SDS011;54726;52.000;5.954;2022-09-09T03:03:33;3.58;;;2.60;;
67930;SDS011;54726;52.000;5.954;2022-09-09T03:04:33;7.18;;;3.35;;
67930;SDS011;54726;52.000;5.954;2022-09-09T03:05:34;4.40;;;2.67;;
67930;SDS011;54726;52.000;5.954;2022-09-09T03:06:34;4.38;;;2.45;;
67930;SDS011;54726;52.000;5.954;2022-09-09T03:07:35;6.85;;;2.45;;
67930;SDS011;54726;52.000;5.954;2022-09-09T03:08:35;3.20;;;2.28;;
67930;SDS011;54726;52.000;5.954;2022-09-09T03:09:35;4.57;;;2.70;;
67930;SDS011;54726;52.000;5.954;2022-09-09T03:10:36;3.63;;;2.22;;
67930;SDS011;54726;52.000;5.954;2022-09-09T03:11:36;3.75;;;2.47;;
67930;SDS011;54726;52.000;5.954;2022-09-09T03:12:37;4.53;;;2.47;;
67930;SDS011;54726;52.000;5.954;2022-09-09T03:13:39;3.75;;;2.72;;
67930;SDS011;54726;52.000;5.954;2022-09-09T03:14:39;3.92;;;2.72;;
67930;SDS011;54726;52.000;5.954;2022-09-09T03:15:40;5.53;;;3.17;;
67930;SDS011;54726;52.000;5.954;2022-09-09T03:16:41;4.20;;;2.33;;
67930;SDS011;54726;52.000;5.954;2022-09-09T03:17:41;4.25;;;2.75;;
67930;SDS011;54726;52.000;5.954;2022-09-09T03:18:42;4.32;;;2.92;;
67930;SDS011;54726;52.000;5.954;2022-09-09T03:19:42;5.63;;;3.20;;
67930;SDS011;54726;52.000;5.954;2022-09-09T03:20:43;3.58;;;2.30;;
67930;SDS011;54726;52.000;5.954;2022-09-09T03:21:43;5.65;;;2.35;;
67930;SDS011;54726;52.000;5.954;2022-09-09T03:22:43;4.30;;;2.47;;
67930;SDS011;54726;52.000;5.954;2022-09-09T03:23:44;3.83;;;2.50;;
67930;SDS011;54726;52.000;5.954;2022-09-09T03:24:44;4.32;;;2.83;;
67930;SDS011;54726;52.000;5.954;2022-09-09T03:25:47;7.57;;;2.65;;
67930;SDS011;54726;52.000;5.954;2022-09-09T03:26:48;11.45;;;3.20;;
67930;SDS011;54726;52.000;5.954;2022-09-09T03:27:48;4.30;;;2.83;;
67930;SDS011;54726;52.000;5.954;2022-09-09T03:28:50;4.78;;;2.45;;
67930;SDS011;54726;52.000;5.954;2022-09-09T03:29:51;4.88;;;2.60;;
67930;SDS011;54726;52.000;5.954;2022-09-09T03:30:51;3.22;;;2.42;;
67930;SDS011;54726;52.000;5.954;2022-09-09T03:31:52;5.55;;;2.88;;
67930;SDS011;54726;52.000;5.954;2022-09-09T03:32:52;3.58;;;2.55;;
67930;SDS011;54726;52.000;5.954;2022-09-09T03:33:53;4.43;;;2.40;;
67930;SDS011;54726;52.000;5.954;2022-09-09T03:34:53;6.00;;;2.60;;
67930;SDS011;54726;52.000;5.954;2022-09-09T03:35:54;7.07;;;3.20;;
67930;SDS011;54726;52.000;5.954;2022-09-09T03:36:54;4.15;;;2.67;;
67930;SDS011;54726;52.000;5.954;2022-09-09T03:37:55;5.20;;;3.03;;
67930;SDS011;54726;52.000;5.954;2022-09-09T03:38:55;3.53;;;2.70;;
67930;SDS011;54726;52.000;5.954;2022-09-09T03:39:56;4.63;;;2.90;;
67930;SDS011;54726;52.000;5.954;2022-09-09T03:40:56;6.38;;;2.97;;
67930;SDS011;54726;52.000;5.954;2022-09-09T03:41:57;6.68;;;3.25;;
67930;SDS011;54726;52.000;5.954;2022-09-09T03:42:57;6.03;;;3.05;;
67930;SDS011;54726;52.000;5.954;2022-09-09T03:43:59;4.90;;;2.60;;
67930;SDS011;54726;52.000;5.954;2022-09-09T03:44:59;4.97;;;2.92;;
67930;SDS011;54726;52.000;5.954;2022-09-09T03:46:00;3.65;;;2.90;;
67930;SDS011;54726;52.000;5.954;2022-09-09T03:47:00;4.20;;;2.60;;
67930;SDS011;54726;52.000;5.954;2022-09-09T03:48:01;5.97;;;3.15;;
67930;SDS011;54726;52.000;5.954;2022-09-09T03:49:01;5.32;;;3.20;;
67930;SDS011;54726;52.000;5.954;2022-09-09T03:50:02;10.05;;;3.03;;
67930;SDS011;54726;52.000;5.954;2022-09-09T03:51:03;4.95;;;2.72;;
67930;SDS011;54726;52.000;5.954;2022-09-09T03:52:04;4.25;;;3.08;;
67930;SDS011;54726;52.000;5.954;2022-09-09T03:53:04;4.00;;;3.00;;
67930;SDS011;54726;52.000;5.954;2022-09-09T03:54:05;8.15;;;3.22;;
67930;SDS011;54726;52.000;5.954;2022-09-09T03:55:06;4.35;;;2.97;;
67930;SDS011;54726;52.000;5.954;2022-09-09T03:56:07;11.07;;;3.40;;
67930;SDS011;54726;52.000;5.954;2022-09-09T03:57:08;6.90;;;3.35;;
67930;SDS011;54726;52.000;5.954;2022-09-09T03:58:09;5.95;;;3.40;;
67930;SDS011;54726;52.000;5.954;2022-09-09T03:59:11;5.25;;;2.85;;
67930;SDS011;54726;52.000;5.954;2022-09-09T04:00:12;4.80;;;3.08;;
67930;SDS011;54726;52.000;5.954;2022-09-09T04:01:13;6.43;;;3.15;;
67930;SDS011;54726;52.000;5.954;2022-09-09T04:02:14;21.25;;;3.35;;
67930;SDS011;54726;52.000;5.954;2022-09-09T04:03:15;8.15;;;3.65;;
67930;SDS011;54726;52.000;5.954;2022-09-09T04:04:16;4.65;;;3.30;;
67930;SDS011;54726;52.000;5.954;2022-09-09T04:05:16;5.22;;;3.38;;
67930;SDS011;54726;52.000;5.954;2022-09-09T04:06:17;7.60;;;3.50;;
67930;SDS011;54726;52.000;5.954;2022-09-09T04:07:17;7.65;;;3.47;;
67930;SDS011;54726;52.000;5.954;2022-09-09T04:08:18;6.82;;;3.65;;
67930;SDS011;54726;52.000;5.954;2022-09-09T04:09:18;6.90;;;3.20;;
67930;SDS011;54726;52.000;5.954;2022-09-09T04:10:19;6.95;;;3.88;;
67930;SDS011;54726;52.000;5.954;2022-09-09T04:11:19;7.57;;;3.42;;
67930;SDS011;54726;52.000;5.954;2022-09-09T04:12:20;6.68;;;3.42;;
67930;SDS011;54726;52.000;5.954;2022-09-09T04:13:20;6.88;;;3.40;;
67930;SDS011;54726;52.000;5.954;2022-09-09T04:14:22;4.35;;;3.33;;
67930;SDS011;54726;52.000;5.954;2022-09-09T04:15:23;7.72;;;3.75;;
67930;SDS011;54726;52.000;5.954;2022-09-09T04:16:23;6.03;;;3.40;;
67930;SDS011;54726;52.000;5.954;2022-09-09T04:17:24;11.40;;;3.88;;
67930;SDS011;54726;52.000;5.954;2022-09-09T04:18:25;8.85;;;3.38;;
67930;SDS011;54726;52.000;5.954;2022-09-09T04:19:26;6.07;;;3.55;;
67930;SDS011;54726;52.000;5.954;2022-09-09T04:20:26;6.50;;;3.47;;
67930;SDS011;54726;52.000;5.954;2022-09-09T04:21:27;5.97;;;3.97;;
67930;SDS011;54726;52.000;5.954;2022-09-09T04:22:27;7.53;;;3.70;;
67930;SDS011;54726;52.000;5.954;2022-09-09T04:23:27;7.10;;;3.55;;
67930;SDS011;54726;52.000;5.954;2022-09-09T04:24:28;5.13;;;3.25;;
67930;SDS011;54726;52.000;5.954;2022-09-09T04:25:29;5.60;;;3.40;;
67930;SDS011;54726;52.000;5.954;2022-09-09T04:26:29;6.40;;;3.20;;
67930;SDS011;54726;52.000;5.954;2022-09-09T04:27:29;10.63;;;3.75;;
67930;SDS011;54726;52.000;5.954;2022-09-09T04:28:31;5.93;;;3.58;;
67930;SDS011;54726;52.000;5.954;2022-09-09T04:29:34;6.20;;;3.28;;
67930;SDS011;54726;52.000;5.954;2022-09-09T04:30:34;5.75;;;3.00;;
67930;SDS011;54726;52.000;5.954;2022-09-09T04:31:34;8.90;;;3.45;;
67930;SDS011;54726;52.000;5.954;2022-09-09T04:32:35;6.68;;;3.10;;
67930;SDS011;54726;52.000;5.954;2022-09-09T04:33:35;4.45;;;3.15;;
67930;SDS011;54726;52.000;5.954;2022-09-09T04:34:36;5.30;;;3.60;;
67930;SDS011;54726;52.000;5.954;2022-09-09T04:35:38;6.53;;;3.67;;
67930;SDS011;54726;52.000;5.954;2022-09-09T04:36:38;11.07;;;3.35;;
67930;SDS011;54726;52.000;5.954;2022-09-09T04:37:39;5.93;;;3.60;;
67930;SDS011;54726;52.000;5.954;2022-09-09T04:38:39;8.07;;;3.38;;
67930;SDS011;54726;52.000;5.954;2022-09-09T04:39:40;4.28;;;3.58;;
67930;SDS011;54726;52.000;5.954;2022-09-09T04:40:41;8.25;;;3.30;;
67930;SDS011;54726;52.000;5.954;2022-09-09T04:41:42;5.90;;;3.55;;
67930;SDS011;54726;52.000;5.954;2022-09-09T04:42:43;5.90;;;3.42;;
67930;SDS011;54726;52.000;5.954;2022-09-09T04:43:43;12.32;;;3.75;;
67930;SDS011;54726;52.000;5.954;2022-09-09T04:44:45;8.27;;;3.78;;
67930;SDS011;54726;52.000;5.954;2022-09-09T04:45:46;6.72;;;3.58;;
67930;SDS011;54726;52.000;5.954;2022-09-09T04:46:48;9.25;;;3.78;;
67930;SDS011;54726;52.000;5.954;2022-09-09T04:47:48;10.40;;;3.40;;
67930;SDS011;54726;52.000;5.954;2022-09-09T04:48:48;7.20;;;3.35;;
67930;SDS011;54726;52.000;5.954;2022-09-09T04:49:49;5.95;;;3.58;;
67930;SDS011;54726;52.000;5.954;2022-09-09T04:50:56;6.80;;;3.78;;
67930;SDS011;54726;52.000;5.954;2022-09-09T04:51:57;5.45;;;3.58;;
67930;SDS011;54726;52.000;5.954;2022-09-09T04:52:59;8.57;;;3.22;;
67930;SDS011;54726;52.000;5.954;2022-09-09T04:54:00;8.73;;;3.83;;
67930;SDS011;54726;52.000;5.954;2022-09-09T04:55:00;8.32;;;3.65;;
67930;SDS011;54726;52.000;5.954;2022-09-09T04:56:01;5.03;;;3.03;;
67930;SDS011;54726;52.000;5.954;2022-09-09T04:57:02;7.75;;;3.63;;
67930;SDS011;54726;52.000;5.954;2022-09-09T04:58:03;7.97;;;4.00;;
67930;SDS011;54726;52.000;5.954;2022-09-09T04:59:04;10.93;;;3.90;;
67930;SDS011;54726;52.000;5.954;2022-09-09T05:00:07;5.00;;;3.35;;
67930;SDS011;54726;52.000;5.954;2022-09-09T05:01:09;7.28;;;4.13;;
67930;SDS011;54726;52.000;5.954;2022-09-09T05:02:10;6.93;;;3.40;;
67930;SDS011;54726;52.000;5.954;2022-09-09T05:03:11;8.10;;;3.90;;
67930;SDS011;54726;52.000;5.954;2022-09-09T05:04:12;15.00;;;4.35;;
67930;SDS011;54726;52.000;5.954;2022-09-09T05:05:12;7.25;;;3.60;;
67930;SDS011;54726;52.000;5.954;2022-09-09T05:06:13;4.68;;;3.47;;
67930;SDS011;54726;52.000;5.954;2022-09-09T05:07:15;6.40;;;3.58;;
67930;SDS011;54726;52.000;5.954;2022-09-09T05:08:16;9.93;;;3.60;;
67930;SDS011;54726;52.000;5.954;2022-09-09T05:09:16;8.18;;;3.78;;
67930;SDS011;54726;52.000;5.954;2022-09-09T05:10:17;10.05;;;3.83;;
67930;SDS011;54726;52.000;5.954;2022-09-09T05:11:18;5.50;;;3.30;;
67930;SDS011;54726;52.000;5.954;2022-09-09T05:12:20;9.25;;;3.83;;
67930;SDS011;54726;52.000;5.954;2022-09-09T05:13:21;8.68;;;3.97;;
67930;SDS011;54726;52.000;5.954;2022-09-09T05:14:21;9.18;;;3.92;;
67930;SDS011;54726;52.000;5.954;2022-09-09T05:15:23;12.55;;;3.80;;
67930;SDS011;54726;52.000;5.954;2022-09-09T05:16:23;6.50;;;2.90;;
67930;SDS011;54726;52.000;5.954;2022-09-09T05:17:24;11.23;;;3.38;;
67930;SDS011;54726;52.000;5.954;2022-09-09T05:18:24;7.90;;;3.42;;
67930;SDS011;54726;52.000;5.954;2022-09-09T05:19:25;6.45;;;3.80;;
67930;SDS011;54726;52.000;5.954;2022-09-09T05:20:25;8.18;;;3.38;;
67930;SDS011;54726;52.000;5.954;2022-09-09T05:21:26;6.45;;;3.33;;
67930;SDS011;54726;52.000;5.954;2022-09-09T05:22:26;6.00;;;3.20;;
67930;SDS011;54726;52.000;5.954;2022-09-09T05:23:27;13.60;;;3.60;;
67930;SDS011;54726;52.000;5.954;2022-09-09T05:24:27;14.52;;;3.80;;
67930;SDS011;54726;52.000;5.954;2022-09-09T05:25:28;7.45;;;3.65;;
67930;SDS011;54726;52.000;5.954;2022-09-09T05:26:28;6.90;;;3.47;;
67930;SDS011;54726;52.000;5.954;2022-09-09T05:27:29;4.97;;;3.08;;
67930;SDS011;54726;52.000;5.954;2022-09-09T05:28:30;12.63;;;3.38;;
67930;SDS011;54726;52.000;5.954;2022-09-09T05:29:30;6.50;;;3.60;;
67930;SDS011;54726;52.000;5.954;2022-09-09T05:30:32;11.27;;;3.47;;
67930;SDS011;54726;52.000;5.954;2022-09-09T05:31:33;6.28;;;3.20;;
67930;SDS011;54726;52.000;5.954;2022-09-09T05:32:33;9.98;;;3.40;;
67930;SDS011;54726;52.000;5.954;2022-09-09T05:33:34;12.95;;;3.35;;
67930;SDS011;54726;52.000;5.954;2022-09-09T05:34:35;10.82;;;3.20;;
67930;SDS011;54726;52.000;5.954;2022-09-09T05:35:36;6.75;;;3.60;;
67930;SDS011;54726;52.000;5.954;2022-09-09T05:36:36;7.43;;;4.20;;
67930;SDS011;54726;52.000;5.954;2022-09-09T05:37:37;10.63;;;3.22;;
67930;SDS011;54726;52.000;5.954;2022-09-09T05:38:37;9.63;;;3.75;;
67930;SDS011;54726;52.000;5.954;2022-09-09T05:39:38;5.07;;;3.28;;
67930;SDS011;54726;52.000;5.954;2022-09-09T05:40:38;10.77;;;3.58;;
67930;SDS011;54726;52.000;5.954;2022-09-09T05:41:39;10.57;;;4.00;;
67930;SDS011;54726;52.000;5.954;2022-09-09T05:42:39;14.90;;;3.60;;
67930;SDS011;54726;52.000;5.954;2022-09-09T05:43:39;12.02;;;3.90;;
67930;SDS011;54726;52.000;5.954;2022-09-09T05:44:40;13.70;;;3.75;;
67930;SDS011;54726;52.000;5.954;2022-09-09T05:45:42;8.82;;;4.03;;
67930;SDS011;54726;52.000;5.954;2022-09-09T05:46:42;10.13;;;3.40;;
67930;SDS011;54726;52.000;5.954;2022-09-09T05:47:43;8.43;;;3.60;;
67930;SDS011;54726;52.000;5.954;2022-09-09T05:48:44;10.13;;;3.63;;
67930;SDS011;54726;52.000;5.954;2022-09-09T05:49:46;7.47;;;3.67;;
67930;SDS011;54726;52.000;5.954;2022-09-09T05:50:52;7.80;;;3.42;;
67930;SDS011;54726;52.000;5.954;2022-09-09T05:51:53;7.30;;;3.35;;
67930;SDS011;54726;52.000;5.954;2022-09-09T05:52:54;8.38;;;3.58;;
67930;SDS011;54726;52.000;5.954;2022-09-09T05:53:54;9.00;;;3.70;;
67930;SDS011;54726;52.000;5.954;2022-09-09T05:54:55;9.88;;;3.80;;
67930;SDS011;54726;52.000;5.954;2022-09-09T05:55:59;15.93;;;3.28;;
67930;SDS011;54726;52.000;5.954;2022-09-09T05:57:00;11.73;;;3.65;;
67930;SDS011;54726;52.000;5.954;2022-09-09T05:58:01;7.47;;;4.13;;
67930;SDS011;54726;52.000;5.954;2022-09-09T05:59:01;5.90;;;3.60;;
67930;SDS011;54726;52.000;5.954;2022-09-09T06:00:02;10.63;;;3.95;;
67930;SDS011;54726;52.000;5.954;2022-09-09T06:01:05;9.10;;;3.53;;
67930;SDS011;54726;52.000;5.954;2022-09-09T06:02:07;10.52;;;3.35;;
67930;SDS011;54726;52.000;5.954;2022-09-09T06:03:09;6.82;;;3.30;;
67930;SDS011;54726;52.000;5.954;2022-09-09T06:04:10;8.63;;;3.22;;
67930;SDS011;54726;52.000;5.954;2022-09-09T06:05:11;11.45;;;3.00;;
67930;SDS011;54726;52.000;5.954;2022-09-09T06:06:13;13.73;;;3.85;;
67930;SDS011;54726;52.000;5.954;2022-09-09T06:07:15;9.02;;;3.10;;
67930;SDS011;54726;52.000;5.954;2022-09-09T06:08:15;9.32;;;3.65;;
67930;SDS011;54726;52.000;5.954;2022-09-09T06:09:15;15.10;;;3.83;;
67930;SDS011;54726;52.000;5.954;2022-09-09T06:10:16;11.23;;;3.47;;
67930;SDS011;54726;52.000;5.954;2022-09-09T06:11:17;4.32;;;2.85;;
67930;SDS011;54726;52.000;5.954;2022-09-09T06:12:19;5.80;;;3.35;;
67930;SDS011;54726;52.000;5.954;2022-09-09T06:13:19;4.72;;;2.72;;
67930;SDS011;54726;52.000;5.954;2022-09-09T06:14:19;7.07;;;3.40;;
67930;SDS011;54726;52.000;5.954;2022-09-09T06:15:20;9.30;;;3.47;;
67930;SDS011;54726;52.000;5.954;2022-09-09T06:16:23;15.30;;;3.50;;
67930;SDS011;54726;52.000;5.954;2022-09-09T06:17:25;7.05;;;3.70;;
67930;SDS011;54726;52.000;5.954;2022-09-09T06:18:25;12.88;;;3.30;;
67930;SDS011;54726;52.000;5.954;2022-09-09T06:19:26;8.82;;;3.45;;
67930;SDS011;54726;52.000;5.954;2022-09-09T06:20:26;10.52;;;3.70;;
67930;SDS011;54726;52.000;5.954;2022-09-09T06:21:27;11.52;;;3.25;;
67930;SDS011;54726;52.000;5.954;2022-09-09T06:22:29;13.43;;;3.70;;